MAPA DE AEROPUERTO

INFORMACIÓN METAR y TAF


Deprecated: The each() function is deprecated. This message will be suppressed on further calls in /home/customer/www/clickair-va.com/public_html/VAM/vam/helpers/get_metar.php on line 20
METAR FOR EBBR
ADDS - METARS form results

(0255 UTC 25 May 2022)
Data provider http://aviationweather.gov/metar/data/
 
METAR text: EBBR 250250Z 21007KT CAVOK 09/07 Q1014 NOSIG
Conditions at: EBBR (BRUSSELS NATIONA, BE) observed 0250 UTC 25 May 2022
Temperature: 9.0°C (48°F)
Dewpoint: 7.0°C (45°F) [RH = 87%]
Pressure (altimeter): 29.94 inches Hg (1014.0 mb)
Winds: from the SSW (210 degrees) at 8 MPH (7 knots; 3.6 m/s)
Visibility: 6 or more miles (10+ km)
Ceiling: ceiling and visibility are OK
Clouds: unknown
Weather: no significant weather observed at this time

METAR text: EBBR 250220Z 21007KT CAVOK 09/07 Q1014 NOSIG
Conditions at: EBBR (BRUSSELS NATIONA, BE) observed 0220 UTC 25 May 2022
Temperature: 9.0°C (48°F)
Dewpoint: 7.0°C (45°F) [RH = 87%]
Pressure (altimeter): 29.94 inches Hg (1014.0 mb)
Winds: from the SSW (210 degrees) at 8 MPH (7 knots; 3.6 m/s)
Visibility: 6 or more miles (10+ km)
Ceiling: ceiling and visibility are OK
Clouds: unknown
Weather: no significant weather observed at this time

Forecast for: EBBR (BRUSSELS NATIONA, BE)
Text: TAF EBBR 242300Z 2500/2606 23005KT CAVOK
Forecast period: 0000 UTC 25 May 2022 to 0600 UTC 26 May 2022
Forecast type: FROM: standard forecast or significant change
Winds: from the SW (230 degrees) at 6 MPH (5 knots; 2.6 m/s)
Visibility: 6 or more miles (10+ km)
Ceiling: unknown
Clouds: missing
Weather: NSW  (no significant weather)
Text: PROB40 2510/2518 25015KT
Forecast period: 1000 to 1800 UTC 25 May 2022
Forecast type: PROBABLE: 40 percent likelihood of the following during this time
Winds: from the WSW (250 degrees) at 17 MPH (15 knots; 7.7 m/s)
Visibility: missing
Ceiling: unknown
Clouds: missing
Weather: no significant weather forecast for this period
Text: PROB30
Forecast period: 2200 UTC 25 May 2022 to 0500 UTC 26 May 2022
Forecast type: TEMPORARY: The following changes expected for less than half the time period
Visibility: missing
Ceiling: 1200 feet AGL
Clouds: scattered clouds at 800 feet AGL
broken clouds at 1200 feet AGL
Weather: no significant weather forecast for this period